sensor_id;sensor_type;location;lat;lon;timestamp;temperature;humidity
18105;DHT22;9179;50.968;3.134;2023-07-13T00:00:41;16.50;99.90
18105;DHT22;9179;50.968;3.134;2023-07-13T00:03:08;16.50;99.90
18105;DHT22;9179;50.968;3.134;2023-07-13T00:05:35;16.50;99.90
18105;DHT22;9179;50.968;3.134;2023-07-13T00:08:02;16.50;99.90
18105;DHT22;9179;50.968;3.134;2023-07-13T00:10:29;16.50;99.90
18105;DHT22;9179;50.968;3.134;2023-07-13T00:12:56;16.50;99.90
18105;DHT22;9179;50.968;3.134;2023-07-13T00:15:25;16.40;99.90
18105;DHT22;9179;50.968;3.134;2023-07-13T00:17:54;16.40;99.90
18105;DHT22;9179;50.968;3.134;2023-07-13T00:20:22;16.40;99.90
18105;DHT22;9179;50.968;3.134;2023-07-13T00:22:51;16.40;99.90
18105;DHT22;9179;50.968;3.134;2023-07-13T00:25:19;16.40;99.90
18105;DHT22;9179;50.968;3.134;2023-07-13T00:27:46;16.40;99.90
18105;DHT22;9179;50.968;3.134;2023-07-13T00:30:14;16.30;99.90
18105;DHT22;9179;50.968;3.134;2023-07-13T00:32:43;16.40;99.90
18105;DHT22;9179;50.968;3.134;2023-07-13T00:35:09;16.30;99.90
18105;DHT22;9179;50.968;3.134;2023-07-13T00:37:37;16.30;99.90
18105;DHT22;9179;50.968;3.134;2023-07-13T00:40:04;16.30;99.90
18105;DHT22;9179;50.968;3.134;2023-07-13T00:42:32;16.30;99.90
18105;DHT22;9179;50.968;3.134;2023-07-13T00:46:02;16.30;99.90
18105;DHT22;9179;50.968;3.134;2023-07-13T00:47:56;16.30;99.90
18105;DHT22;9179;50.968;3.134;2023-07-13T00:50:24;16.20;99.90
18105;DHT22;9179;50.968;3.134;2023-07-13T00:52:53;16.20;99.90
18105;DHT22;9179;50.968;3.134;2023-07-13T00:55:23;16.20;99.90
18105;DHT22;9179;50.968;3.134;2023-07-13T00:57:50;16.20;99.90
18105;DHT22;9179;50.968;3.134;2023-07-13T01:00:20;16.20;99.90
18105;DHT22;9179;50.968;3.134;2023-07-13T01:02:49;16.10;99.90
18105;DHT22;9179;50.968;3.134;2023-07-13T01:05:19;16.10;99.90
18105;DHT22;9179;50.968;3.134;2023-07-13T01:07:48;16.10;99.90
18105;DHT22;9179;50.968;3.134;2023-07-13T01:10:16;16.10;99.90
18105;DHT22;9179;50.968;3.134;2023-07-13T01:12:43;16.10;99.90
18105;DHT22;9179;50.968;3.134;2023-07-13T01:15:34;16.10;99.90
18105;DHT22;9179;50.968;3.134;2023-07-13T01:18:01;16.10;99.90
18105;DHT22;9179;50.968;3.134;2023-07-13T01:20:31;16.10;99.90
18105;DHT22;9179;50.968;3.134;2023-07-13T01:23:04;16.10;99.90
18105;DHT22;9179;50.968;3.134;2023-07-13T01:25:33;16.10;99.90
18105;DHT22;9179;50.968;3.134;2023-07-13T01:28:01;16.10;99.90
18105;DHT22;9179;50.968;3.134;2023-07-13T01:30:28;16.10;99.90
18105;DHT22;9179;50.968;3.134;2023-07-13T01:32:55;16.00;99.90
18105;DHT22;9179;50.968;3.134;2023-07-13T01:35:22;16.00;99.90
18105;DHT22;9179;50.968;3.134;2023-07-13T01:37:50;16.00;99.90
18105;DHT22;9179;50.968;3.134;2023-07-13T01:40:19;16.00;99.90
18105;DHT22;9179;50.968;3.134;2023-07-13T01:42:46;16.00;99.90
18105;DHT22;9179;50.968;3.134;2023-07-13T01:45:13;16.00;99.90
18105;DHT22;9179;50.968;3.134;2023-07-13T01:47:40;16.00;99.90
18105;DHT22;9179;50.968;3.134;2023-07-13T01:50:08;16.00;99.90
18105;DHT22;9179;50.968;3.134;2023-07-13T01:52:35;16.00;99.90
18105;DHT22;9179;50.968;3.134;2023-07-13T01:55:02;16.00;99.90
18105;DHT22;9179;50.968;3.134;2023-07-13T01:57:31;16.00;99.90
18105;DHT22;9179;50.968;3.134;2023-07-13T01:59:58;16.00;99.90
18105;DHT22;9179;50.968;3.134;2023-07-13T02:02:25;16.20;99.90
18105;DHT22;9179;50.968;3.134;2023-07-13T02:04:52;16.00;99.90
18105;DHT22;9179;50.968;3.134;2023-07-13T02:07:19;16.00;99.90
18105;DHT22;9179;50.968;3.134;2023-07-13T02:09:46;16.00;99.90
18105;DHT22;9179;50.968;3.134;2023-07-13T02:12:13;16.00;99.90
18105;DHT22;9179;50.968;3.134;2023-07-13T02:14:41;16.00;99.90
18105;DHT22;9179;50.968;3.134;2023-07-13T02:17:09;15.90;99.90
18105;DHT22;9179;50.968;3.134;2023-07-13T02:19:37;15.90;99.90
18105;DHT22;9179;50.968;3.134;2023-07-13T02:22:04;15.90;99.90
18105;DHT22;9179;50.968;3.134;2023-07-13T02:24:31;15.90;99.90
18105;DHT22;9179;50.968;3.134;2023-07-13T02:26:58;15.90;99.90
18105;DHT22;9179;50.968;3.134;2023-07-13T02:29:25;15.90;99.90
18105;DHT22;9179;50.968;3.134;2023-07-13T02:31:53;15.90;99.90
18105;DHT22;9179;50.968;3.134;2023-07-13T02:34:20;15.90;99.90
18105;DHT22;9179;50.968;3.134;2023-07-13T02:36:47;15.90;99.90
18105;DHT22;9179;50.968;3.134;2023-07-13T02:39:14;15.90;99.90
18105;DHT22;9179;50.968;3.134;2023-07-13T02:41:41;16.00;99.90
18105;DHT22;9179;50.968;3.134;2023-07-13T02:44:08;16.00;99.90
18105;DHT22;9179;50.968;3.134;2023-07-13T02:46:36;16.10;99.90
18105;DHT22;9179;50.968;3.134;2023-07-13T02:49:05;16.20;99.90
18105;DHT22;9179;50.968;3.134;2023-07-13T02:51:32;16.40;99.90
18105;DHT22;9179;50.968;3.134;2023-07-13T02:53:59;16.50;99.90
18105;DHT22;9179;50.968;3.134;2023-07-13T02:56:28;16.70;99.90
18105;DHT22;9179;50.968;3.134;2023-07-13T02:58:56;16.80;99.90
18105;DHT22;9179;50.968;3.134;2023-07-13T03:01:23;16.90;99.90
18105;DHT22;9179;50.968;3.134;2023-07-13T03:03:51;17.00;99.90
18105;DHT22;9179;50.968;3.134;2023-07-13T03:06:20;17.00;99.90
18105;DHT22;9179;50.968;3.134;2023-07-13T03:08:48;16.90;99.90
18105;DHT22;9179;50.968;3.134;2023-07-13T03:11:18;16.90;99.90
18105;DHT22;9179;50.968;3.134;2023-07-13T03:13:46;16.80;99.90
18105;DHT22;9179;50.968;3.134;2023-07-13T03:16:14;16.70;99.90
18105;DHT22;9179;50.968;3.134;2023-07-13T03:18:42;16.70;99.90
18105;DHT22;9179;50.968;3.134;2023-07-13T03:21:09;16.70;99.90
18105;DHT22;9179;50.968;3.134;2023-07-13T03:23:38;16.60;99.90
18105;DHT22;9179;50.968;3.134;2023-07-13T03:26:06;16.50;99.90
18105;DHT22;9179;50.968;3.134;2023-07-13T03:28:33;16.50;99.90
18105;DHT22;9179;50.968;3.134;2023-07-13T03:31:02;16.60;99.90
18105;DHT22;9179;50.968;3.134;2023-07-13T03:33:29;16.60;99.90
18105;DHT22;9179;50.968;3.134;2023-07-13T03:35:56;16.60;99.90
18105;DHT22;9179;50.968;3.134;2023-07-13T03:38:23;16.60;99.90
18105;DHT22;9179;50.968;3.134;2023-07-13T03:40:53;16.60;99.90
18105;DHT22;9179;50.968;3.134;2023-07-13T03:43:20;16.50;99.90
18105;DHT22;9179;50.968;3.134;2023-07-13T03:45:47;16.50;99.90
18105;DHT22;9179;50.968;3.134;2023-07-13T03:48:14;16.40;99.90
18105;DHT22;9179;50.968;3.134;2023-07-13T03:50:41;16.40;99.90
18105;DHT22;9179;50.968;3.134;2023-07-13T03:53:08;16.50;99.90
18105;DHT22;9179;50.968;3.134;2023-07-13T03:55:35;16.60;99.90
18105;DHT22;9179;50.968;3.134;2023-07-13T03:58:26;16.70;99.90
18105;DHT22;9179;50.968;3.134;2023-07-13T04:00:53;16.80;99.90
18105;DHT22;9179;50.968;3.134;2023-07-13T04:03:20;16.90;99.90
18105;DHT22;9179;50.968;3.134;2023-07-13T04:05:48;17.00;99.90
18105;DHT22;9179;50.968;3.134;2023-07-13T04:08:15;17.10;99.90
18105;DHT22;9179;50.968;3.134;2023-07-13T04:10:42;17.20;99.90
18105;DHT22;9179;50.968;3.134;2023-07-13T04:13:09;17.40;99.90
18105;DHT22;9179;50.968;3.134;2023-07-13T04:15:39;17.40;99.90
18105;DHT22;9179;50.968;3.134;2023-07-13T04:18:05;17.40;99.90
18105;DHT22;9179;50.968;3.134;2023-07-13T04:20:32;17.50;99.90
18105;DHT22;9179;50.968;3.134;2023-07-13T04:22:59;17.60;99.90
18105;DHT22;9179;50.968;3.134;2023-07-13T04:25:27;17.60;99.90
18105;DHT22;9179;50.968;3.134;2023-07-13T04:27:54;17.70;99.90
18105;DHT22;9179;50.968;3.134;2023-07-13T04:30:21;17.80;99.90
18105;DHT22;9179;50.968;3.134;2023-07-13T04:32:52;17.90;99.90
18105;DHT22;9179;50.968;3.134;2023-07-13T04:35:19;17.90;99.90
18105;DHT22;9179;50.968;3.134;2023-07-13T04:37:47;17.90;99.90
18105;DHT22;9179;50.968;3.134;2023-07-13T04:40:15;17.90;99.90
18105;DHT22;9179;50.968;3.134;2023-07-13T04:42:43;18.10;99.90
18105;DHT22;9179;50.968;3.134;2023-07-13T04:45:10;18.10;99.90
18105;DHT22;9179;50.968;3.134;2023-07-13T04:47:37;18.30;99.90
18105;DHT22;9179;50.968;3.134;2023-07-13T04:50:06;18.40;99.90
18105;DHT22;9179;50.968;3.134;2023-07-13T04:52:33;18.40;99.90
18105;DHT22;9179;50.968;3.134;2023-07-13T04:55:00;18.50;99.90
18105;DHT22;9179;50.968;3.134;2023-07-13T04:57:27;18.60;99.90
18105;DHT22;9179;50.968;3.134;2023-07-13T04:59:54;18.60;99.90
18105;DHT22;9179;50.968;3.134;2023-07-13T05:02:21;18.70;99.90
18105;DHT22;9179;50.968;3.134;2023-07-13T05:04:49;18.80;99.90
18105;DHT22;9179;50.968;3.134;2023-07-13T05:07:17;18.90;99.90
18105;DHT22;9179;50.968;3.134;2023-07-13T05:09:44;19.10;99.90
18105;DHT22;9179;50.968;3.134;2023-07-13T05:12:11;19.10;99.90
18105;DHT22;9179;50.968;3.134;2023-07-13T05:14:38;19.10;99.90
18105;DHT22;9179;50.968;3.134;2023-07-13T05:17:05;19.10;99.90
18105;DHT22;9179;50.968;3.134;2023-07-13T05:19:32;19.30;99.90
18105;DHT22;9179;50.968;3.134;2023-07-13T05:21:59;19.40;99.90
18105;DHT22;9179;50.968;3.134;2023-07-13T05:24:27;19.40;99.90
18105;DHT22;9179;50.968;3.134;2023-07-13T05:26:54;19.40;99.90
18105;DHT22;9179;50.968;3.134;2023-07-13T05:29:21;19.50;99.90
18105;DHT22;9179;50.968;3.134;2023-07-13T05:31:49;19.60;99.90
18105;DHT22;9179;50.968;3.134;2023-07-13T05:34:16;19.90;99.90
18105;DHT22;9179;50.968;3.134;2023-07-13T05:36:43;19.90;99.90
18105;DHT22;9179;50.968;3.134;2023-07-13T05:39:10;20.00;99.90
18105;DHT22;9179;50.968;3.134;2023-07-13T05:41:39;20.00;99.90
18105;DHT22;9179;50.968;3.134;2023-07-13T05:44:05;20.00;99.90
18105;DHT22;9179;50.968;3.134;2023-07-13T05:46:32;20.10;99.90
18105;DHT22;9179;50.968;3.134;2023-07-13T05:48:59;20.10;99.90
18105;DHT22;9179;50.968;3.134;2023-07-13T05:51:26;20.30;99.90
18105;DHT22;9179;50.968;3.134;2023-07-13T05:53:53;20.30;99.90
18105;DHT22;9179;50.968;3.134;2023-07-13T05:56:20;20.50;99.90
18105;DHT22;9179;50.968;3.134;2023-07-13T05:58:49;21.00;99.90
18105;DHT22;9179;50.968;3.134;2023-07-13T06:01:16;21.20;99.90
18105;DHT22;9179;50.968;3.134;2023-07-13T06:03:44;21.40;99.90
18105;DHT22;9179;50.968;3.134;2023-07-13T06:06:11;21.40;99.90
18105;DHT22;9179;50.968;3.134;2023-07-13T06:08:38;21.50;99.90
18105;DHT22;9179;50.968;3.134;2023-07-13T06:11:06;21.50;99.90
18105;DHT22;9179;50.968;3.134;2023-07-13T06:13:33;21.50;99.90
18105;DHT22;9179;50.968;3.134;2023-07-13T06:16:02;21.60;99.90
18105;DHT22;9179;50.968;3.134;2023-07-13T06:18:31;21.60;99.90
18105;DHT22;9179;50.968;3.134;2023-07-13T06:20:58;21.70;99.90
18105;DHT22;9179;50.968;3.134;2023-07-13T06:23:25;21.80;99.90
18105;DHT22;9179;50.968;3.134;2023-07-13T06:25:53;22.10;99.90
18105;DHT22;9179;50.968;3.134;2023-07-13T06:28:20;22.40;99.90
18105;DHT22;9179;50.968;3.134;2023-07-13T06:30:47;22.50;99.90
18105;DHT22;9179;50.968;3.134;2023-07-13T06:33:30;23.10;99.90
18105;DHT22;9179;50.968;3.134;2023-07-13T06:35:58;23.60;99.90
18105;DHT22;9179;50.968;3.134;2023-07-13T06:38:25;24.50;99.90
18105;DHT22;9179;50.968;3.134;2023-07-13T06:40:51;25.20;99.90
18105;DHT22;9179;50.968;3.134;2023-07-13T06:43:18;25.90;99.90
18105;DHT22;9179;50.968;3.134;2023-07-13T06:45:47;25.80;99.90
18105;DHT22;9179;50.968;3.134;2023-07-13T06:48:15;25.00;99.90
18105;DHT22;9179;50.968;3.134;2023-07-13T06:50:44;24.40;99.90
18105;DHT22;9179;50.968;3.134;2023-07-13T06:53:12;25.70;99.90
18105;DHT22;9179;50.968;3.134;2023-07-13T06:55:39;26.70;99.90
18105;DHT22;9179;50.968;3.134;2023-07-13T06:58:06;26.40;99.90
18105;DHT22;9179;50.968;3.134;2023-07-13T07:00:33;25.90;99.90
18105;DHT22;9179;50.968;3.134;2023-07-13T07:03:00;25.00;99.90
18105;DHT22;9179;50.968;3.134;2023-07-13T07:05:27;25.00;99.90
18105;DHT22;9179;50.968;3.134;2023-07-13T07:07:55;25.20;99.90
18105;DHT22;9179;50.968;3.134;2023-07-13T07:10:22;25.60;99.90
18105;DHT22;9179;50.968;3.134;2023-07-13T07:12:49;26.00;99.90
18105;DHT22;9179;50.968;3.134;2023-07-13T07:15:17;25.90;99.90
18105;DHT22;9179;50.968;3.134;2023-07-13T07:17:44;25.80;99.90
18105;DHT22;9179;50.968;3.134;2023-07-13T07:20:12;25.20;99.90
18105;DHT22;9179;50.968;3.134;2023-07-13T07:22:39;24.80;99.90
18105;DHT22;9179;50.968;3.134;2023-07-13T07:25:07;25.00;99.90
18105;DHT22;9179;50.968;3.134;2023-07-13T07:27:34;25.40;99.90
18105;DHT22;9179;50.968;3.134;2023-07-13T07:30:01;25.60;99.90
18105;DHT22;9179;50.968;3.134;2023-07-13T07:32:29;25.60;99.90
18105;DHT22;9179;50.968;3.134;2023-07-13T07:34:56;25.30;99.90
18105;DHT22;9179;50.968;3.134;2023-07-13T07:37:23;25.10;99.90
18105;DHT22;9179;50.968;3.134;2023-07-13T07:39:50;25.30;99.90
18105;DHT22;9179;50.968;3.134;2023-07-13T07:42:19;25.60;99.90
18105;DHT22;9179;50.968;3.134;2023-07-13T07:44:46;25.50;99.90
18105;DHT22;9179;50.968;3.134;2023-07-13T07:47:13;25.80;99.90
18105;DHT22;9179;50.968;3.134;2023-07-13T07:49:40;25.60;99.90
18105;DHT22;9179;50.968;3.134;2023-07-13T07:52:07;25.50;99.90
18105;DHT22;9179;50.968;3.134;2023-07-13T07:54:34;25.70;99.90
18105;DHT22;9179;50.968;3.134;2023-07-13T07:57:01;25.90;99.90
18105;DHT22;9179;50.968;3.134;2023-07-13T07:59:30;25.60;99.90
18105;DHT22;9179;50.968;3.134;2023-07-13T08:01:57;26.30;99.90
18105;DHT22;9179;50.968;3.134;2023-07-13T08:04:23;26.10;99.90
18105;DHT22;9179;50.968;3.134;2023-07-13T08:06:50;26.00;99.90
18105;DHT22;9179;50.968;3.134;2023-07-13T08:09:17;25.90;99.90
18105;DHT22;9179;50.968;3.134;2023-07-13T08:11:44;26.10;99.90
18105;DHT22;9179;50.968;3.134;2023-07-13T08:14:11;26.30;99.90
18105;DHT22;9179;50.968;3.134;2023-07-13T08:16:39;26.70;99.90
18105;DHT22;9179;50.968;3.134;2023-07-13T08:19:06;27.20;99.90
18105;DHT22;9179;50.968;3.134;2023-07-13T08:21:33;27.80;99.90
18105;DHT22;9179;50.968;3.134;2023-07-13T08:24:00;29.60;99.90
18105;DHT22;9179;50.968;3.134;2023-07-13T08:26:27;30.90;99.90
18105;DHT22;9179;50.968;3.134;2023-07-13T08:28:54;32.00;98.70
18105;DHT22;9179;50.968;3.134;2023-07-13T08:31:21;31.80;96.40
18105;DHT22;9179;50.968;3.134;2023-07-13T08:33:50;32.50;94.60
18105;DHT22;9179;50.968;3.134;2023-07-13T08:36:17;32.80;92.00
18105;DHT22;9179;50.968;3.134;2023-07-13T08:38:43;33.10;91.30
18105;DHT22;9179;50.968;3.134;2023-07-13T08:41:12;33.00;88.40
18105;DHT22;9179;50.968;3.134;2023-07-13T08:43:42;31.50;88.00
18105;DHT22;9179;50.968;3.134;2023-07-13T08:46:16;29.70;90.90
18105;DHT22;9179;50.968;3.134;2023-07-13T08:48:47;28.70;91.80
18105;DHT22;9179;50.968;3.134;2023-07-13T08:51:36;28.40;93.00
18105;DHT22;9179;50.968;3.134;2023-07-13T08:54:10;28.70;93.20
18105;DHT22;9179;50.968;3.134;2023-07-13T08:56:39;28.70;93.00
18105;DHT22;9179;50.968;3.134;2023-07-13T08:59:11;28.30;93.30
18105;DHT22;9179;50.968;3.134;2023-07-13T09:01:52;27.90;93.60
18105;DHT22;9179;50.968;3.134;2023-07-13T09:04:26;27.30;94.30
18105;DHT22;9179;50.968;3.134;2023-07-13T09:07:03;28.00;94.80
18105;DHT22;9179;50.968;3.134;2023-07-13T09:09:39;29.80;92.80
18105;DHT22;9179;50.968;3.134;2023-07-13T09:12:13;31.30;90.80
18105;DHT22;9179;50.968;3.134;2023-07-13T09:14:47;32.60;87.70
18105;DHT22;9179;50.968;3.134;2023-07-13T09:17:19;31.40;83.50
18105;DHT22;9179;50.968;3.134;2023-07-13T09:19:53;30.70;85.30
18105;DHT22;9179;50.968;3.134;2023-07-13T09:22:23;30.50;85.50
18105;DHT22;9179;50.968;3.134;2023-07-13T09:24:55;30.70;85.30
18105;DHT22;9179;50.968;3.134;2023-07-13T09:27:29;31.80;83.20
18105;DHT22;9179;50.968;3.134;2023-07-13T09:30:02;33.30;79.70
18105;DHT22;9179;50.968;3.134;2023-07-13T09:32:34;33.20;76.40
18105;DHT22;9179;50.968;3.134;2023-07-13T09:35:10;33.00;76.10
18105;DHT22;9179;50.968;3.134;2023-07-13T09:37:39;32.90;75.10
18105;DHT22;9179;50.968;3.134;2023-07-13T09:40:13;31.90;75.50
18105;DHT22;9179;50.968;3.134;2023-07-13T09:42:42;31.00;76.50
18105;DHT22;9179;50.968;3.134;2023-07-13T09:45:09;30.20;77.40
18105;DHT22;9179;50.968;3.134;2023-07-13T09:47:39;29.50;78.60
18105;DHT22;9179;50.968;3.134;2023-07-13T09:50:09;28.30;80.00
18105;DHT22;9179;50.968;3.134;2023-07-13T09:52:42;27.60;82.10
18105;DHT22;9179;50.968;3.134;2023-07-13T09:55:25;26.40;84.50
18105;DHT22;9179;50.968;3.134;2023-07-13T09:57:52;25.30;88.50
18105;DHT22;9179;50.968;3.134;2023-07-13T10:00:22;22.60;94.60
18105;DHT22;9179;50.968;3.134;2023-07-13T10:03:02;19.90;99.90
18105;DHT22;9179;50.968;3.134;2023-07-13T10:05:38;18.60;99.90
18105;DHT22;9179;50.968;3.134;2023-07-13T10:08:16;18.20;99.90
18105;DHT22;9179;50.968;3.134;2023-07-13T10:10:44;18.30;99.90
18105;DHT22;9179;50.968;3.134;2023-07-13T10:13:28;18.70;99.90
18105;DHT22;9179;50.968;3.134;2023-07-13T10:15:58;19.20;99.90
18105;DHT22;9179;50.968;3.134;2023-07-13T10:18:25;20.10;99.90
18105;DHT22;9179;50.968;3.134;2023-07-13T10:20:58;20.80;99.90
18105;DHT22;9179;50.968;3.134;2023-07-13T10:23:31;21.20;99.90
18105;DHT22;9179;50.968;3.134;2023-07-13T10:25:59;21.70;99.90
18105;DHT22;9179;50.968;3.134;2023-07-13T10:28:30;22.50;99.90
18105;DHT22;9179;50.968;3.134;2023-07-13T10:31:00;22.90;99.90
18105;DHT22;9179;50.968;3.134;2023-07-13T10:33:28;23.60;99.90
18105;DHT22;9179;50.968;3.134;2023-07-13T10:36:01;24.20;99.90
18105;DHT22;9179;50.968;3.134;2023-07-13T10:38:31;24.80;99.90
18105;DHT22;9179;50.968;3.134;2023-07-13T10:41:02;25.80;99.90
18105;DHT22;9179;50.968;3.134;2023-07-13T10:43:34;25.90;99.90
18105;DHT22;9179;50.968;3.134;2023-07-13T10:46:04;26.40;99.90
18105;DHT22;9179;50.968;3.134;2023-07-13T10:48:33;27.00;99.90
18105;DHT22;9179;50.968;3.134;2023-07-13T10:51:04;28.00;99.90
18105;DHT22;9179;50.968;3.134;2023-07-13T10:53:35;29.50;99.90
18105;DHT22;9179;50.968;3.134;2023-07-13T10:56:03;30.60;99.90
18105;DHT22;9179;50.968;3.134;2023-07-13T10:58:35;29.90;99.90
18105;DHT22;9179;50.968;3.134;2023-07-13T11:01:08;29.60;99.90
18105;DHT22;9179;50.968;3.134;2023-07-13T11:03:46;30.60;99.90
18105;DHT22;9179;50.968;3.134;2023-07-13T11:06:17;30.60;99.90
18105;DHT22;9179;50.968;3.134;2023-07-13T11:08:58;29.40;99.90
18105;DHT22;9179;50.968;3.134;2023-07-13T11:11:35;29.50;99.90
18105;DHT22;9179;50.968;3.134;2023-07-13T11:14:05;29.80;99.90
18105;DHT22;9179;50.968;3.134;2023-07-13T11:16:44;31.40;99.90
18105;DHT22;9179;50.968;3.134;2023-07-13T11:22:22;31.20;99.90
18105;DHT22;9179;50.968;3.134;2023-07-13T11:25:01;30.80;99.90
18105;DHT22;9179;50.968;3.134;2023-07-13T11:27:37;31.50;99.90
18105;DHT22;9179;50.968;3.134;2023-07-13T11:30:25;31.80;99.90
18105;DHT22;9179;50.968;3.134;2023-07-13T11:33:08;32.40;99.90
18105;DHT22;9179;50.968;3.134;2023-07-13T11:35:44;32.70;99.90
18105;DHT22;9179;50.968;3.134;2023-07-13T11:38:15;32.50;99.90
18105;DHT22;9179;50.968;3.134;2023-07-13T11:40:45;32.80;99.90
18105;DHT22;9179;50.968;3.134;2023-07-13T11:43:14;33.60;99.90
18105;DHT22;9179;50.968;3.134;2023-07-13T11:45:42;33.90;99.90
18105;DHT22;9179;50.968;3.134;2023-07-13T11:48:23;34.10;99.90
18105;DHT22;9179;50.968;3.134;2023-07-13T11:51:00;33.20;99.90
18105;DHT22;9179;50.968;3.134;2023-07-13T11:53:36;33.00;99.90
18105;DHT22;9179;50.968;3.134;2023-07-13T11:56:06;33.80;99.90
18105;DHT22;9179;50.968;3.134;2023-07-13T11:58:33;34.30;99.90
18105;DHT22;9179;50.968;3.134;2023-07-13T12:01:02;34.70;99.90
18105;DHT22;9179;50.968;3.134;2023-07-13T12:03:33;35.00;95.80
18105;DHT22;9179;50.968;3.134;2023-07-13T12:06:03;33.70;94.80
18105;DHT22;9179;50.968;3.134;2023-07-13T12:08:32;32.90;93.60
18105;DHT22;9179;50.968;3.134;2023-07-13T12:11:14;31.50;92.30
18105;DHT22;9179;50.968;3.134;2023-07-13T12:13:43;30.80;94.00
18105;DHT22;9179;50.968;3.134;2023-07-13T12:16:16;30.80;91.80
18105;DHT22;9179;50.968;3.134;2023-07-13T12:18:44;31.80;91.90
18105;DHT22;9179;50.968;3.134;2023-07-13T12:21:17;32.80;91.40
18105;DHT22;9179;50.968;3.134;2023-07-13T12:23:47;33.20;89.10
18105;DHT22;9179;50.968;3.134;2023-07-13T12:26:17;33.80;86.10
18105;DHT22;9179;50.968;3.134;2023-07-13T12:28:48;34.20;83.90
18105;DHT22;9179;50.968;3.134;2023-07-13T12:31:30;33.70;81.70
18105;DHT22;9179;50.968;3.134;2023-07-13T12:33:59;32.20;79.00
18105;DHT22;9179;50.968;3.134;2023-07-13T12:36:30;31.70;81.20
18105;DHT22;9179;50.968;3.134;2023-07-13T12:39:00;32.00;80.20
18105;DHT22;9179;50.968;3.134;2023-07-13T12:41:31;32.70;80.80
18105;DHT22;9179;50.968;3.134;2023-07-13T12:43:59;32.60;79.00
18105;DHT22;9179;50.968;3.134;2023-07-13T12:46:27;33.20;79.20
18105;DHT22;9179;50.968;3.134;2023-07-13T12:48:57;33.20;76.00
18105;DHT22;9179;50.968;3.134;2023-07-13T12:51:26;33.80;75.40
18105;DHT22;9179;50.968;3.134;2023-07-13T12:53:57;33.90;71.50
18105;DHT22;9179;50.968;3.134;2023-07-13T12:56:27;33.30;72.30
18105;DHT22;9179;50.968;3.134;2023-07-13T12:59:02;33.20;72.00
18105;DHT22;9179;50.968;3.134;2023-07-13T13:01:32;33.40;71.60
18105;DHT22;9179;50.968;3.134;2023-07-13T13:04:03;33.50;70.90
18105;DHT22;9179;50.968;3.134;2023-07-13T13:06:32;33.20;70.60
18105;DHT22;9179;50.968;3.134;2023-07-13T13:09:02;33.20;70.30
18105;DHT22;9179;50.968;3.134;2023-07-13T13:11:31;33.20;69.30
18105;DHT22;9179;50.968;3.134;2023-07-13T13:13:59;33.10;69.10
18105;DHT22;9179;50.968;3.134;2023-07-13T13:16:31;32.70;68.80
18105;DHT22;9179;50.968;3.134;2023-07-13T13:19:00;32.60;68.90
18105;DHT22;9179;50.968;3.134;2023-07-13T13:21:30;33.20;69.50
18105;DHT22;9179;50.968;3.134;2023-07-13T13:23:58;34.40;67.30
18105;DHT22;9179;50.968;3.134;2023-07-13T13:26:25;33.90;64.30
18105;DHT22;9179;50.968;3.134;2023-07-13T13:28:52;34.10;64.30
18105;DHT22;9179;50.968;3.134;2023-07-13T13:31:20;35.10;64.00
18105;DHT22;9179;50.968;3.134;2023-07-13T13:33:47;36.90;62.60
18105;DHT22;9179;50.968;3.134;2023-07-13T13:36:16;38.00;59.70
18105;DHT22;9179;50.968;3.134;2023-07-13T13:38:44;37.80;58.90
18105;DHT22;9179;50.968;3.134;2023-07-13T13:41:13;37.00;56.80
18105;DHT22;9179;50.968;3.134;2023-07-13T13:43:41;36.10;58.70
18105;DHT22;9179;50.968;3.134;2023-07-13T13:46:15;37.10;59.00
18105;DHT22;9179;50.968;3.134;2023-07-13T13:48:44;38.70;56.90
18105;DHT22;9179;50.968;3.134;2023-07-13T13:51:17;37.90;55.90
18105;DHT22;9179;50.968;3.134;2023-07-13T13:53:44;35.80;56.80
18105;DHT22;9179;50.968;3.134;2023-07-13T13:56:12;33.80;59.90
18105;DHT22;9179;50.968;3.134;2023-07-13T13:58:39;36.20;59.50
18105;DHT22;9179;50.968;3.134;2023-07-13T14:01:12;36.70;57.10
18105;DHT22;9179;50.968;3.134;2023-07-13T14:03:40;34.80;58.10
18105;DHT22;9179;50.968;3.134;2023-07-13T14:06:11;33.30;60.20
18105;DHT22;9179;50.968;3.134;2023-07-13T14:08:39;31.50;62.40
18105;DHT22;9179;50.968;3.134;2023-07-13T14:11:07;30.40;64.50
18105;DHT22;9179;50.968;3.134;2023-07-13T14:13:40;29.90;65.80
18105;DHT22;9179;50.968;3.134;2023-07-13T14:16:11;33.10;62.30
18105;DHT22;9179;50.968;3.134;2023-07-13T14:18:38;33.70;60.40
18105;DHT22;9179;50.968;3.134;2023-07-13T14:21:12;32.20;61.10
18105;DHT22;9179;50.968;3.134;2023-07-13T14:23:40;33.20;60.60
18105;DHT22;9179;50.968;3.134;2023-07-13T14:26:12;36.00;58.50
18105;DHT22;9179;50.968;3.134;2023-07-13T14:28:42;38.10;54.40
18105;DHT22;9179;50.968;3.134;2023-07-13T14:31:09;38.40;52.90
18105;DHT22;9179;50.968;3.134;2023-07-13T14:33:36;36.40;54.20
18105;DHT22;9179;50.968;3.134;2023-07-13T14:36:05;34.90;55.70
18105;DHT22;9179;50.968;3.134;2023-07-13T14:38:37;35.30;55.80
18105;DHT22;9179;50.968;3.134;2023-07-13T14:41:04;37.60;54.60
18105;DHT22;9179;50.968;3.134;2023-07-13T14:43:31;37.00;53.40
18105;DHT22;9179;50.968;3.134;2023-07-13T14:45:58;35.00;55.40
18105;DHT22;9179;50.968;3.134;2023-07-13T14:48:25;36.70;54.60
18105;DHT22;9179;50.968;3.134;2023-07-13T14:50:54;37.90;52.90
18105;DHT22;9179;50.968;3.134;2023-07-13T14:53:22;35.80;54.50
18105;DHT22;9179;50.968;3.134;2023-07-13T14:55:50;36.20;54.60
18105;DHT22;9179;50.968;3.134;2023-07-13T14:58:17;37.00;53.20
18105;DHT22;9179;50.968;3.134;2023-07-13T15:00:44;38.70;51.80
18105;DHT22;9179;50.968;3.134;2023-07-13T15:03:17;40.00;50.50
18105;DHT22;9179;50.968;3.134;2023-07-13T15:05:47;41.00;49.00
18105;DHT22;9179;50.968;3.134;2023-07-13T15:08:15;39.60;49.70
18105;DHT22;9179;50.968;3.134;2023-07-13T15:10:42;36.90;52.20
18105;DHT22;9179;50.968;3.134;2023-07-13T15:13:15;34.10;55.20
18105;DHT22;9179;50.968;3.134;2023-07-13T15:15:45;34.60;56.20
18105;DHT22;9179;50.968;3.134;2023-07-13T15:18:14;37.20;52.90
18105;DHT22;9179;50.968;3.134;2023-07-13T15:20:43;37.70;52.50
18105;DHT22;9179;50.968;3.134;2023-07-13T15:23:12;40.40;50.50
18105;DHT22;9179;50.968;3.134;2023-07-13T15:25:41;41.90;47.90
18105;DHT22;9179;50.968;3.134;2023-07-13T15:28:09;41.10;47.20
18105;DHT22;9179;50.968;3.134;2023-07-13T15:30:41;38.80;49.30
18105;DHT22;9179;50.968;3.134;2023-07-13T15:33:13;38.90;49.50
18105;DHT22;9179;50.968;3.134;2023-07-13T15:35:43;39.60;48.20
18105;DHT22;9179;50.968;3.134;2023-07-13T15:38:15;40.80;46.90
18105;DHT22;9179;50.968;3.134;2023-07-13T15:40:43;41.30;46.40
18105;DHT22;9179;50.968;3.134;2023-07-13T15:43:11;41.80;46.20
18105;DHT22;9179;50.968;3.134;2023-07-13T15:45:40;39.00;48.70
18105;DHT22;9179;50.968;3.134;2023-07-13T15:48:13;34.50;51.90
18105;DHT22;9179;50.968;3.134;2023-07-13T15:50:43;32.50;55.10
18105;DHT22;9179;50.968;3.134;2023-07-13T15:53:11;34.90;52.90
18105;DHT22;9179;50.968;3.134;2023-07-13T15:55:39;37.50;50.60
18105;DHT22;9179;50.968;3.134;2023-07-13T15:58:11;39.40;48.20
18105;DHT22;9179;50.968;3.134;2023-07-13T16:00:41;39.80;47.80